sensor_id;sensor_type;location;lat;lon;timestamp;P1;durP1;ratioP1;P2;durP2;ratioP2
29814;SDS011;16708;50.426;7.664;2022-07-23T00:00:16;10.10;;;6.70;;
29814;SDS011;16708;50.426;7.664;2022-07-23T00:05:11;11.40;;;6.80;;
29814;SDS011;16708;50.426;7.664;2022-07-23T00:10:04;10.50;;;6.30;;
29814;SDS011;16708;50.426;7.664;2022-07-23T00:14:59;11.50;;;7.00;;
29814;SDS011;16708;50.426;7.664;2022-07-23T00:19:54;11.20;;;6.90;;
29814;SDS011;16708;50.426;7.664;2022-07-23T00:24:48;10.40;;;7.10;;
29814;SDS011;16708;50.426;7.664;2022-07-23T00:29:43;10.20;;;7.10;;
29814;SDS011;16708;50.426;7.664;2022-07-23T00:34:37;10.20;;;6.70;;
29814;SDS011;16708;50.426;7.664;2022-07-23T00:39:32;12.40;;;7.30;;
29814;SDS011;16708;50.426;7.664;2022-07-23T00:44:27;10.90;;;7.60;;
29814;SDS011;16708;50.426;7.664;2022-07-23T00:49:21;14.40;;;8.00;;
29814;SDS011;16708;50.426;7.664;2022-07-23T00:54:16;11.20;;;7.80;;
29814;SDS011;16708;50.426;7.664;2022-07-23T00:59:11;13.70;;;8.10;;
29814;SDS011;16708;50.426;7.664;2022-07-23T01:04:06;13.30;;;8.30;;
29814;SDS011;16708;50.426;7.664;2022-07-23T01:09:01;13.30;;;8.70;;
29814;SDS011;16708;50.426;7.664;2022-07-23T01:13:55;12.60;;;8.60;;
29814;SDS011;16708;50.426;7.664;2022-07-23T01:18:50;12.50;;;8.40;;
29814;SDS011;16708;50.426;7.664;2022-07-23T01:23:44;11.50;;;8.30;;
29814;SDS011;16708;50.426;7.664;2022-07-23T01:28:38;15.10;;;10.00;;
29814;SDS011;16708;50.426;7.664;2022-07-23T01:33:33;13.40;;;8.50;;
29814;SDS011;16708;50.426;7.664;2022-07-23T01:38:28;14.70;;;9.00;;
29814;SDS011;16708;50.426;7.664;2022-07-23T01:43:23;14.10;;;8.90;;
29814;SDS011;16708;50.426;7.664;2022-07-23T01:48:17;13.70;;;8.40;;
29814;SDS011;16708;50.426;7.664;2022-07-23T01:53:12;12.70;;;8.60;;
29814;SDS011;16708;50.426;7.664;2022-07-23T01:58:07;12.40;;;8.50;;
29814;SDS011;16708;50.426;7.664;2022-07-23T02:03:02;13.10;;;8.90;;
29814;SDS011;16708;50.426;7.664;2022-07-23T02:07:56;13.60;;;8.70;;
29814;SDS011;16708;50.426;7.664;2022-07-23T02:12:50;13.50;;;9.10;;
29814;SDS011;16708;50.426;7.664;2022-07-23T02:17:45;15.50;;;8.90;;
29814;SDS011;16708;50.426;7.664;2022-07-23T02:22:40;13.10;;;9.20;;
29814;SDS011;16708;50.426;7.664;2022-07-23T02:27:34;13.70;;;8.80;;
29814;SDS011;16708;50.426;7.664;2022-07-23T02:32:29;13.60;;;9.10;;
29814;SDS011;16708;50.426;7.664;2022-07-23T02:37:24;14.80;;;8.90;;
29814;SDS011;16708;50.426;7.664;2022-07-23T02:42:19;13.30;;;8.80;;
29814;SDS011;16708;50.426;7.664;2022-07-23T02:47:13;15.00;;;9.10;;
29814;SDS011;16708;50.426;7.664;2022-07-23T02:52:07;15.20;;;8.90;;
29814;SDS011;16708;50.426;7.664;2022-07-23T02:57:02;17.10;;;9.10;;
29814;SDS011;16708;50.426;7.664;2022-07-23T03:01:56;15.00;;;9.40;;
29814;SDS011;16708;50.426;7.664;2022-07-23T03:06:48;14.20;;;9.00;;
29814;SDS011;16708;50.426;7.664;2022-07-23T03:11:43;15.50;;;9.30;;
29814;SDS011;16708;50.426;7.664;2022-07-23T03:16:38;14.10;;;9.20;;
29814;SDS011;16708;50.426;7.664;2022-07-23T03:21:32;12.10;;;8.30;;
29814;SDS011;16708;50.426;7.664;2022-07-23T03:26:26;15.20;;;8.70;;
29814;SDS011;16708;50.426;7.664;2022-07-23T03:31:21;12.40;;;8.00;;
29814;SDS011;16708;50.426;7.664;2022-07-23T03:36:16;12.90;;;8.20;;
29814;SDS011;16708;50.426;7.664;2022-07-23T03:41:10;14.30;;;8.70;;
29814;SDS011;16708;50.426;7.664;2022-07-23T03:46:05;16.20;;;8.50;;
29814;SDS011;16708;50.426;7.664;2022-07-23T03:50:59;12.30;;;8.20;;
29814;SDS011;16708;50.426;7.664;2022-07-23T03:55:53;15.00;;;8.40;;
29814;SDS011;16708;50.426;7.664;2022-07-23T04:00:48;11.90;;;7.80;;
29814;SDS011;16708;50.426;7.664;2022-07-23T04:05:43;15.60;;;8.30;;
29814;SDS011;16708;50.426;7.664;2022-07-23T04:10:36;13.10;;;8.40;;
29814;SDS011;16708;50.426;7.664;2022-07-23T04:15:31;10.70;;;7.60;;
29814;SDS011;16708;50.426;7.664;2022-07-23T04:20:25;10.80;;;7.50;;
29814;SDS011;16708;50.426;7.664;2022-07-23T04:25:20;12.90;;;7.80;;
29814;SDS011;16708;50.426;7.664;2022-07-23T04:30:15;14.30;;;8.40;;
29814;SDS011;16708;50.426;7.664;2022-07-23T04:35:09;12.60;;;7.70;;
29814;SDS011;16708;50.426;7.664;2022-07-23T04:40:04;14.40;;;8.30;;
29814;SDS011;16708;50.426;7.664;2022-07-23T04:44:58;12.10;;;8.20;;
29814;SDS011;16708;50.426;7.664;2022-07-23T04:49:52;12.60;;;8.00;;
29814;SDS011;16708;50.426;7.664;2022-07-23T04:54:47;11.70;;;7.40;;
29814;SDS011;16708;50.426;7.664;2022-07-23T04:59:42;11.40;;;7.90;;
29814;SDS011;16708;50.426;7.664;2022-07-23T05:04:37;11.60;;;7.80;;
29814;SDS011;16708;50.426;7.664;2022-07-23T05:09:31;11.50;;;7.50;;
29814;SDS011;16708;50.426;7.664;2022-07-23T05:14:26;11.90;;;7.80;;
29814;SDS011;16708;50.426;7.664;2022-07-23T05:19:21;11.30;;;7.30;;
29814;SDS011;16708;50.426;7.664;2022-07-23T05:24:16;13.10;;;7.70;;
29814;SDS011;16708;50.426;7.664;2022-07-23T05:29:11;11.50;;;7.50;;
29814;SDS011;16708;50.426;7.664;2022-07-23T05:34:05;11.40;;;7.20;;
29814;SDS011;16708;50.426;7.664;2022-07-23T05:39:00;12.00;;;7.70;;
29814;SDS011;16708;50.426;7.664;2022-07-23T05:43:55;12.10;;;7.10;;
29814;SDS011;16708;50.426;7.664;2022-07-23T05:48:49;10.60;;;6.50;;
29814;SDS011;16708;50.426;7.664;2022-07-23T05:53:44;10.30;;;6.40;;
29814;SDS011;16708;50.426;7.664;2022-07-23T05:58:38;9.40;;;6.10;;
29814;SDS011;16708;50.426;7.664;2022-07-23T06:03:33;8.80;;;6.40;;
29814;SDS011;16708;50.426;7.664;2022-07-23T06:08:28;9.50;;;6.10;;
29814;SDS011;16708;50.426;7.664;2022-07-23T06:13:23;11.60;;;5.80;;
29814;SDS011;16708;50.426;7.664;2022-07-23T06:18:18;9.30;;;5.60;;
29814;SDS011;16708;50.426;7.664;2022-07-23T06:23:13;10.50;;;5.90;;
29814;SDS011;16708;50.426;7.664;2022-07-23T06:28:07;10.30;;;5.90;;
29814;SDS011;16708;50.426;7.664;2022-07-23T06:33:02;8.70;;;5.50;;
29814;SDS011;16708;50.426;7.664;2022-07-23T06:37:57;12.70;;;6.30;;
29814;SDS011;16708;50.426;7.664;2022-07-23T06:42:51;9.50;;;5.30;;
29814;SDS011;16708;50.426;7.664;2022-07-23T06:47:46;7.90;;;5.70;;
29814;SDS011;16708;50.426;7.664;2022-07-23T06:52:41;7.60;;;5.30;;
29814;SDS011;16708;50.426;7.664;2022-07-23T06:57:35;12.30;;;5.90;;
29814;SDS011;16708;50.426;7.664;2022-07-23T07:02:29;9.70;;;5.50;;
29814;SDS011;16708;50.426;7.664;2022-07-23T07:07:24;12.40;;;5.90;;
29814;SDS011;16708;50.426;7.664;2022-07-23T07:12:18;9.00;;;5.80;;
29814;SDS011;16708;50.426;7.664;2022-07-23T07:17:13;9.70;;;5.90;;
29814;SDS011;16708;50.426;7.664;2022-07-23T07:22:08;10.60;;;6.00;;
29814;SDS011;16708;50.426;7.664;2022-07-23T07:27:05;11.00;;;6.50;;
29814;SDS011;16708;50.426;7.664;2022-07-23T07:31:55;11.50;;;6.70;;
29814;SDS011;16708;50.426;7.664;2022-07-23T07:36:50;8.40;;;5.90;;
29814;SDS011;16708;50.426;7.664;2022-07-23T07:41:45;8.20;;;5.60;;
29814;SDS011;16708;50.426;7.664;2022-07-23T07:46:39;9.00;;;6.30;;
29814;SDS011;16708;50.426;7.664;2022-07-23T07:51:34;9.20;;;6.30;;
29814;SDS011;16708;50.426;7.664;2022-07-23T07:56:28;9.00;;;6.10;;
29814;SDS011;16708;50.426;7.664;2022-07-23T08:01:23;10.10;;;6.50;;
29814;SDS011;16708;50.426;7.664;2022-07-23T08:06:18;9.90;;;6.00;;
29814;SDS011;16708;50.426;7.664;2022-07-23T08:11:13;9.40;;;6.50;;
29814;SDS011;16708;50.426;7.664;2022-07-23T08:16:08;12.00;;;6.20;;
29814;SDS011;16708;50.426;7.664;2022-07-23T08:21:03;11.00;;;6.70;;
29814;SDS011;16708;50.426;7.664;2022-07-23T08:25:57;8.80;;;6.10;;
29814;SDS011;16708;50.426;7.664;2022-07-23T08:30:52;9.80;;;6.20;;
29814;SDS011;16708;50.426;7.664;2022-07-23T08:35:47;9.50;;;6.50;;
29814;SDS011;16708;50.426;7.664;2022-07-23T08:40:41;10.70;;;6.40;;
29814;SDS011;16708;50.426;7.664;2022-07-23T08:45:36;8.20;;;5.50;;
29814;SDS011;16708;50.426;7.664;2022-07-23T08:50:31;6.60;;;5.10;;
29814;SDS011;16708;50.426;7.664;2022-07-23T08:55:25;8.20;;;5.40;;
29814;SDS011;16708;50.426;7.664;2022-07-23T09:00:18;10.70;;;6.10;;
29814;SDS011;16708;50.426;7.664;2022-07-23T09:05:13;9.40;;;5.30;;
29814;SDS011;16708;50.426;7.664;2022-07-23T09:19:57;8.00;;;5.00;;
29814;SDS011;16708;50.426;7.664;2022-07-23T09:24:51;9.10;;;5.00;;
29814;SDS011;16708;50.426;7.664;2022-07-23T09:29:46;7.30;;;4.80;;
29814;SDS011;16708;50.426;7.664;2022-07-23T09:34:40;6.40;;;5.00;;
29814;SDS011;16708;50.426;7.664;2022-07-23T09:39:35;6.00;;;5.00;;
29814;SDS011;16708;50.426;7.664;2022-07-23T09:44:30;6.90;;;4.70;;
29814;SDS011;16708;50.426;7.664;2022-07-23T09:49:25;6.70;;;4.10;;
29814;SDS011;16708;50.426;7.664;2022-07-23T09:54:19;6.00;;;4.10;;
29814;SDS011;16708;50.426;7.664;2022-07-23T09:59:14;4.50;;;3.20;;
29814;SDS011;16708;50.426;7.664;2022-07-23T10:04:10;3.30;;;2.60;;
29814;SDS011;16708;50.426;7.664;2022-07-23T10:09:06;3.40;;;2.50;;
29814;SDS011;16708;50.426;7.664;2022-07-23T10:14:00;4.30;;;2.40;;
29814;SDS011;16708;50.426;7.664;2022-07-23T10:18:57;3.90;;;2.90;;
29814;SDS011;16708;50.426;7.664;2022-07-23T10:28:47;5.90;;;3.20;;
29814;SDS011;16708;50.426;7.664;2022-07-23T10:43:32;3.30;;;3.00;;
29814;SDS011;16708;50.426;7.664;2022-07-23T11:03:12;3.40;;;2.70;;
29814;SDS011;16708;50.426;7.664;2022-07-23T11:08:08;3.20;;;2.90;;
29814;SDS011;16708;50.426;7.664;2022-07-23T11:13:03;3.80;;;2.90;;
29814;SDS011;16708;50.426;7.664;2022-07-23T11:22:52;3.50;;;3.10;;
29814;SDS011;16708;50.426;7.664;2022-07-23T11:27:47;3.40;;;3.10;;
29814;SDS011;16708;50.426;7.664;2022-07-23T11:32:42;3.60;;;3.30;;
29814;SDS011;16708;50.426;7.664;2022-07-23T11:37:38;4.80;;;3.50;;
29814;SDS011;16708;50.426;7.664;2022-07-23T11:42:33;3.90;;;3.50;;
29814;SDS011;16708;50.426;7.664;2022-07-23T11:47:28;4.20;;;3.40;;
29814;SDS011;16708;50.426;7.664;2022-07-23T11:52:23;4.10;;;3.50;;
29814;SDS011;16708;50.426;7.664;2022-07-23T11:57:18;3.70;;;3.30;;
29814;SDS011;16708;50.426;7.664;2022-07-23T12:02:13;4.60;;;3.20;;
29814;SDS011;16708;50.426;7.664;2022-07-23T12:07:09;4.10;;;3.50;;
29814;SDS011;16708;50.426;7.664;2022-07-23T12:12:04;3.80;;;3.40;;
29814;SDS011;16708;50.426;7.664;2022-07-23T12:16:57;4.50;;;3.60;;
29814;SDS011;16708;50.426;7.664;2022-07-23T12:21:52;4.70;;;3.90;;
29814;SDS011;16708;50.426;7.664;2022-07-23T12:31:42;4.30;;;4.00;;
29814;SDS011;16708;50.426;7.664;2022-07-23T12:41:33;4.00;;;3.70;;
29814;SDS011;16708;50.426;7.664;2022-07-23T12:46:28;4.50;;;3.80;;
29814;SDS011;16708;50.426;7.664;2022-07-23T12:51:23;4.70;;;3.80;;
29814;SDS011;16708;50.426;7.664;2022-07-23T13:01:13;3.90;;;3.60;;
29814;SDS011;16708;50.426;7.664;2022-07-23T13:06:07;4.00;;;3.60;;
29814;SDS011;16708;50.426;7.664;2022-07-23T13:11:02;4.10;;;3.60;;
29814;SDS011;16708;50.426;7.664;2022-07-23T13:15:57;4.00;;;3.60;;
29814;SDS011;16708;50.426;7.664;2022-07-23T13:20:52;3.90;;;3.50;;
29814;SDS011;16708;50.426;7.664;2022-07-23T13:25:46;4.30;;;4.00;;
29814;SDS011;16708;50.426;7.664;2022-07-23T13:30:40;4.10;;;3.60;;
29814;SDS011;16708;50.426;7.664;2022-07-23T13:35:35;4.60;;;4.10;;
29814;SDS011;16708;50.426;7.664;2022-07-23T13:40:30;4.30;;;3.90;;
29814;SDS011;16708;50.426;7.664;2022-07-23T13:45:26;4.30;;;3.90;;
29814;SDS011;16708;50.426;7.664;2022-07-23T13:50:21;4.50;;;4.10;;
29814;SDS011;16708;50.426;7.664;2022-07-23T13:55:16;5.00;;;4.40;;
29814;SDS011;16708;50.426;7.664;2022-07-23T14:00:10;4.30;;;3.90;;
29814;SDS011;16708;50.426;7.664;2022-07-23T14:05:05;4.70;;;4.10;;
29814;SDS011;16708;50.426;7.664;2022-07-23T14:10:00;4.90;;;4.40;;
29814;SDS011;16708;50.426;7.664;2022-07-23T14:14:55;4.90;;;4.40;;
29814;SDS011;16708;50.426;7.664;2022-07-23T14:19:51;5.30;;;4.80;;
29814;SDS011;16708;50.426;7.664;2022-07-23T14:24:45;5.60;;;4.70;;
29814;SDS011;16708;50.426;7.664;2022-07-23T14:29:39;4.60;;;4.20;;
29814;SDS011;16708;50.426;7.664;2022-07-23T14:34:35;4.50;;;4.10;;
29814;SDS011;16708;50.426;7.664;2022-07-23T14:39:30;5.30;;;4.60;;
29814;SDS011;16708;50.426;7.664;2022-07-23T14:44:25;5.00;;;4.50;;
29814;SDS011;16708;50.426;7.664;2022-07-23T14:49:20;5.10;;;4.40;;
29814;SDS011;16708;50.426;7.664;2022-07-23T14:54:15;6.10;;;4.70;;
29814;SDS011;16708;50.426;7.664;2022-07-23T14:59:10;5.80;;;5.00;;
29814;SDS011;16708;50.426;7.664;2022-07-23T15:04:05;5.50;;;5.10;;
29814;SDS011;16708;50.426;7.664;2022-07-23T15:09:00;6.00;;;5.40;;
29814;SDS011;16708;50.426;7.664;2022-07-23T15:13:54;5.60;;;5.00;;
29814;SDS011;16708;50.426;7.664;2022-07-23T15:18:48;4.50;;;4.10;;
29814;SDS011;16708;50.426;7.664;2022-07-23T15:23:43;5.10;;;4.60;;
29814;SDS011;16708;50.426;7.664;2022-07-23T15:28:37;4.60;;;4.20;;
29814;SDS011;16708;50.426;7.664;2022-07-23T15:33:31;4.60;;;4.20;;
29814;SDS011;16708;50.426;7.664;2022-07-23T15:38:27;5.00;;;4.50;;
29814;SDS011;16708;50.426;7.664;2022-07-23T15:43:22;5.20;;;4.70;;
29814;SDS011;16708;50.426;7.664;2022-07-23T15:48:17;4.90;;;4.50;;
29814;SDS011;16708;50.426;7.664;2022-07-23T15:53:12;5.70;;;4.60;;
29814;SDS011;16708;50.426;7.664;2022-07-23T15:58:06;5.80;;;4.50;;
29814;SDS011;16708;50.426;7.664;2022-07-23T16:03:01;5.10;;;4.60;;
29814;SDS011;16708;50.426;7.664;2022-07-23T16:07:56;5.80;;;4.40;;
29814;SDS011;16708;50.426;7.664;2022-07-23T16:12:51;10.00;;;6.90;;
29814;SDS011;16708;50.426;7.664;2022-07-23T16:17:45;6.30;;;5.10;;
29814;SDS011;16708;50.426;7.664;2022-07-23T16:22:39;7.00;;;5.00;;
29814;SDS011;16708;50.426;7.664;2022-07-23T16:27:34;6.90;;;4.70;;
29814;SDS011;16708;50.426;7.664;2022-07-23T16:32:29;5.90;;;4.90;;
29814;SDS011;16708;50.426;7.664;2022-07-23T16:37:24;6.30;;;4.80;;
29814;SDS011;16708;50.426;7.664;2022-07-23T16:42:18;5.90;;;4.60;;
29814;SDS011;16708;50.426;7.664;2022-07-23T16:47:12;6.10;;;4.40;;
29814;SDS011;16708;50.426;7.664;2022-07-23T16:52:07;5.50;;;4.50;;
29814;SDS011;16708;50.426;7.664;2022-07-23T16:56:59;5.60;;;4.40;;
29814;SDS011;16708;50.426;7.664;2022-07-23T17:01:54;6.10;;;4.50;;
29814;SDS011;16708;50.426;7.664;2022-07-23T17:06:48;8.70;;;4.80;;
29814;SDS011;16708;50.426;7.664;2022-07-23T17:11:42;7.10;;;4.60;;
29814;SDS011;16708;50.426;7.664;2022-07-23T17:16:37;6.50;;;4.80;;
29814;SDS011;16708;50.426;7.664;2022-07-23T17:21:31;8.70;;;4.40;;
29814;SDS011;16708;50.426;7.664;2022-07-23T17:26:26;6.60;;;4.60;;
29814;SDS011;16708;50.426;7.664;2022-07-23T17:31:21;7.30;;;4.40;;
29814;SDS011;16708;50.426;7.664;2022-07-23T17:36:14;6.10;;;4.90;;
29814;SDS011;16708;50.426;7.664;2022-07-23T17:41:09;6.40;;;4.80;;
29814;SDS011;16708;50.426;7.664;2022-07-23T17:46:03;6.50;;;4.50;;
29814;SDS011;16708;50.426;7.664;2022-07-23T17:50:57;5.10;;;4.60;;
29814;SDS011;16708;50.426;7.664;2022-07-23T17:55:52;5.50;;;4.50;;
29814;SDS011;16708;50.426;7.664;2022-07-23T18:00:46;5.30;;;4.70;;
29814;SDS011;16708;50.426;7.664;2022-07-23T18:05:41;5.60;;;5.00;;
29814;SDS011;16708;50.426;7.664;2022-07-23T18:10:36;7.50;;;4.90;;
29814;SDS011;16708;50.426;7.664;2022-07-23T18:15:31;5.60;;;4.40;;
29814;SDS011;16708;50.426;7.664;2022-07-23T18:20:27;6.00;;;4.80;;
29814;SDS011;16708;50.426;7.664;2022-07-23T18:25:21;8.00;;;4.50;;
29814;SDS011;16708;50.426;7.664;2022-07-23T18:30:16;5.80;;;4.40;;
29814;SDS011;16708;50.426;7.664;2022-07-23T18:35:10;6.80;;;4.80;;
29814;SDS011;16708;50.426;7.664;2022-07-23T18:40:05;7.30;;;4.90;;
29814;SDS011;16708;50.426;7.664;2022-07-23T18:44:59;7.00;;;4.40;;
29814;SDS011;16708;50.426;7.664;2022-07-23T18:49:54;5.80;;;4.50;;
29814;SDS011;16708;50.426;7.664;2022-07-23T18:54:48;5.20;;;4.40;;
29814;SDS011;16708;50.426;7.664;2022-07-23T18:59:43;6.00;;;4.40;;
29814;SDS011;16708;50.426;7.664;2022-07-23T19:04:37;6.20;;;4.50;;
29814;SDS011;16708;50.426;7.664;2022-07-23T19:09:32;6.20;;;4.50;;
29814;SDS011;16708;50.426;7.664;2022-07-23T19:14:27;6.60;;;4.50;;
29814;SDS011;16708;50.426;7.664;2022-07-23T19:19:21;7.40;;;4.50;;
29814;SDS011;16708;50.426;7.664;2022-07-23T19:24:16;7.40;;;4.40;;
29814;SDS011;16708;50.426;7.664;2022-07-23T19:29:10;7.20;;;4.60;;
29814;SDS011;16708;50.426;7.664;2022-07-23T19:34:05;7.80;;;5.10;;
29814;SDS011;16708;50.426;7.664;2022-07-23T19:38:59;8.40;;;4.90;;
29814;SDS011;16708;50.426;7.664;2022-07-23T19:43:54;6.90;;;5.10;;
29814;SDS011;16708;50.426;7.664;2022-07-23T19:48:49;10.30;;;5.30;;
29814;SDS011;16708;50.426;7.664;2022-07-23T19:53:43;7.70;;;4.80;;
29814;SDS011;16708;50.426;7.664;2022-07-23T19:58:38;8.40;;;4.80;;
29814;SDS011;16708;50.426;7.664;2022-07-23T20:03:33;6.90;;;4.80;;
29814;SDS011;16708;50.426;7.664;2022-07-23T20:08:28;9.40;;;5.30;;
29814;SDS011;16708;50.426;7.664;2022-07-23T20:13:23;6.80;;;5.20;;
29814;SDS011;16708;50.426;7.664;2022-07-23T20:18:18;6.30;;;4.70;;
29814;SDS011;16708;50.426;7.664;2022-07-23T20:23:12;8.20;;;5.00;;
29814;SDS011;16708;50.426;7.664;2022-07-23T20:28:07;8.00;;;5.00;;
29814;SDS011;16708;50.426;7.664;2022-07-23T20:33:01;8.10;;;5.00;;
29814;SDS011;16708;50.426;7.664;2022-07-23T20:37:56;7.00;;;4.60;;
29814;SDS011;16708;50.426;7.664;2022-07-23T20:42:50;7.30;;;4.80;;
29814;SDS011;16708;50.426;7.664;2022-07-23T20:47:44;8.60;;;4.90;;
29814;SDS011;16708;50.426;7.664;2022-07-23T20:52:39;7.70;;;4.90;;
29814;SDS011;16708;50.426;7.664;2022-07-23T20:57:34;6.40;;;4.80;;
29814;SDS011;16708;50.426;7.664;2022-07-23T21:02:28;6.50;;;4.60;;
29814;SDS011;16708;50.426;7.664;2022-07-23T21:07:23;6.40;;;4.40;;
29814;SDS011;16708;50.426;7.664;2022-07-23T21:12:17;7.40;;;5.00;;
29814;SDS011;16708;50.426;7.664;2022-07-23T21:17:12;7.50;;;4.60;;
29814;SDS011;16708;50.426;7.664;2022-07-23T21:22:07;6.70;;;4.60;;
29814;SDS011;16708;50.426;7.664;2022-07-23T21:27:01;7.90;;;5.10;;
29814;SDS011;16708;50.426;7.664;2022-07-23T21:31:56;7.30;;;5.00;;
29814;SDS011;16708;50.426;7.664;2022-07-23T21:36:51;7.70;;;4.70;;
29814;SDS011;16708;50.426;7.664;2022-07-23T21:41:45;7.90;;;4.50;;
29814;SDS011;16708;50.426;7.664;2022-07-23T21:46:39;15.30;;;4.60;;
29814;SDS011;16708;50.426;7.664;2022-07-23T21:51:33;7.50;;;4.50;;
29814;SDS011;16708;50.426;7.664;2022-07-23T21:56:27;7.00;;;4.80;;
29814;SDS011;16708;50.426;7.664;2022-07-23T22:01:22;6.40;;;4.20;;
29814;SDS011;16708;50.426;7.664;2022-07-23T22:06:16;6.70;;;4.50;;
29814;SDS011;16708;50.426;7.664;2022-07-23T22:11:11;7.30;;;4.70;;
29814;SDS011;16708;50.426;7.664;2022-07-23T22:16:06;7.00;;;4.70;;
29814;SDS011;16708;50.426;7.664;2022-07-23T22:21:00;8.00;;;4.60;;
29814;SDS011;16708;50.426;7.664;2022-07-23T22:25:55;7.10;;;4.60;;
29814;SDS011;16708;50.426;7.664;2022-07-23T22:30:49;6.90;;;4.40;;
29814;SDS011;16708;50.426;7.664;2022-07-23T22:35:43;6.40;;;4.40;;
29814;SDS011;16708;50.426;7.664;2022-07-23T22:40:38;6.20;;;4.20;;
29814;SDS011;16708;50.426;7.664;2022-07-23T22:45:33;9.20;;;4.50;;
29814;SDS011;16708;50.426;7.664;2022-07-23T22:50:28;7.00;;;4.60;;
29814;SDS011;16708;50.426;7.664;2022-07-23T22:55:23;7.00;;;4.30;;
29814;SDS011;16708;50.426;7.664;2022-07-23T23:00:17;7.50;;;4.60;;
29814;SDS011;16708;50.426;7.664;2022-07-23T23:05:11;9.30;;;4.70;;
29814;SDS011;16708;50.426;7.664;2022-07-23T23:10:06;10.20;;;4.70;;
29814;SDS011;16708;50.426;7.664;2022-07-23T23:15:01;6.30;;;4.60;;
29814;SDS011;16708;50.426;7.664;2022-07-23T23:19:55;7.10;;;4.70;;
29814;SDS011;16708;50.426;7.664;2022-07-23T23:24:50;7.70;;;4.50;;
29814;SDS011;16708;50.426;7.664;2022-07-23T23:29:44;7.60;;;4.60;;
29814;SDS011;16708;50.426;7.664;2022-07-23T23:34:39;6.80;;;4.50;;
29814;SDS011;16708;50.426;7.664;2022-07-23T23:39:33;8.20;;;4.50;;
29814;SDS011;16708;50.426;7.664;2022-07-23T23:44:28;6.50;;;4.70;;
29814;SDS011;16708;50.426;7.664;2022-07-23T23:49:23;6.90;;;4.60;;
29814;SDS011;16708;50.426;7.664;2022-07-23T23:54:18;8.50;;;4.80;;
29814;SDS011;16708;50.426;7.664;2022-07-23T23:59:12;7.10;;;4.70;;
